Time;durP1;ratioP1;P1;durP2;ratioP2;P2;SDS_P1;SDS_P2;PMS_P1;PMS_P2;Temp;Humidity;BMP_temperature;BMP_pressure;BME280_temperature;BME280_humidity;BME280_pressure;Samples;Min_cycle;Max_cycle;Signal;HPM_P1;HPM_P2
2021/12/13 00:01:39;;;;;;;15.40;9.50;;;;;;;3.52;88.60;97277.46;108272;1273;67435;-70
2021/12/13 00:04:36;;;;;;;20.90;13.80;;;;;;;3.55;88.09;97280.39;108139;1272;67587;-69
2021/12/13 00:07:29;;;;;;;77.40;20.40;;;;;;;3.58;88.15;97283.38;108005;1271;59700;-69
2021/12/13 00:10:05;;;;;;;16.90;10.20;;;;;;;3.61;88.18;97283.45;108084;1272;59758;-69
2021/12/13 00:12:39;;;;;;;44.30;14.50;;;;;;;3.64;87.95;97289.29;108283;1273;71515;-69
2021/12/13 00:15:38;;;;;;;18.40;12.10;;;;;;;3.66;88.22;97288.89;108199;1269;67827;-69
2021/12/13 00:18:14;;;;;;;17.70;9.20;;;;;;;3.68;88.32;97289.83;108070;1274;69540;-69
2021/12/13 00:20:48;;;;;;;20.50;12.20;;;;;;;3.70;88.19;97294.19;108174;1273;59773;-69
2021/12/13 00:23:27;;;;;;;26.20;15.90;;;;;;;3.72;88.05;97298.40;108149;1269;59761;-69
2021/12/13 00:26:00;;;;;;;22.60;12.80;;;;;;;3.75;88.54;97301.04;108115;1272;70621;-69
2021/12/13 00:28:38;;;;;;;19.80;12.50;;;;;;;3.77;87.93;97300.38;108286;1270;68012;-69
2021/12/13 00:31:44;;;;;;;38.40;18.60;;;;;;;3.79;87.65;97299.42;108076;1272;69429;-69
2021/12/13 00:34:40;;;;;;;31.30;16.80;;;;;;;3.77;87.69;97305.54;108140;1272;59812;-69
2021/12/13 00:37:28;;;;;;;35.90;19.30;;;;;;;3.76;88.43;97307.36;108049;1272;59711;-69
2021/12/13 00:40:06;;;;;;;52.70;24.80;;;;;;;3.75;89.19;97312.38;108165;1272;70805;-69
2021/12/13 00:42:40;;;;;;;32.30;17.10;;;;;;;3.75;89.65;97309.80;107820;1269;637134;-69
2021/12/13 00:45:14;;;;;;;25.20;14.30;;;;;;;3.77;89.30;97310.39;108154;1270;69221;-69
2021/12/13 00:47:44;;;;;;;64.70;25.40;;;;;;;3.78;89.41;97310.36;108146;1270;59751;-69
2021/12/13 00:50:23;;;;;;;82.60;27.30;;;;;;;3.76;90.01;97312.15;108061;1272;59747;-70
2021/12/13 00:52:54;;;;;;;23.80;12.10;;;;;;;3.75;90.05;97319.13;108116;1270;70963;-70
2021/12/13 00:55:28;;;;;;;30.20;14.20;;;;;;;3.78;89.43;97314.83;108335;1272;68517;-69
2021/12/13 00:58:20;;;;;;;44.40;20.50;;;;;;;3.81;88.53;97316.27;108218;1272;69418;-69
2021/12/13 01:00:59;;;;;;;54.00;23.80;;;;;;;3.77;88.88;97312.09;108027;1272;59732;-68
2021/12/13 01:03:41;;;;;;;33.70;18.50;;;;;;;3.78;89.53;97312.42;108137;1272;59752;-68
2021/12/13 01:06:50;;;;;;;38.60;20.70;;;;;;;3.81;89.30;97312.30;108141;1270;71010;-68
2021/12/13 01:10:00;;;;;;;45.60;21.00;;;;;;;3.83;89.59;97317.17;108043;1273;68591;-69
2021/12/13 01:12:30;;;;;;;33.00;19.50;;;;;;;3.85;89.56;97318.30;108046;1274;68625;-68
2021/12/13 01:15:11;;;;;;;29.80;16.40;;;;;;;3.86;89.58;97319.60;108121;1272;59770;-69
2021/12/13 01:20:42;;;;;;;37.00;20.90;;;;;;;3.93;89.38;97323.09;108123;1268;71592;-68
2021/12/13 01:23:27;;;;;;;35.90;17.00;;;;;;;3.94;89.68;97325.11;108121;1274;68417;-68
2021/12/13 01:26:03;;;;;;;58.60;18.90;;;;;;;3.96;89.55;97329.66;108126;1272;69256;-69
2021/12/13 01:28:38;;;;;;;30.50;15.30;;;;;;;3.96;89.12;97328.78;108140;1273;59767;-68
2021/12/13 01:31:09;;;;;;;92.30;32.90;;;;;;;3.95;88.89;97324.69;108134;1272;59712;-69
2021/12/13 01:33:43;;;;;;;49.40;24.10;;;;;;;3.91;90.03;97323.86;108106;1272;71696;-69
2021/12/13 01:36:26;;;;;;;33.50;15.80;;;;;;;3.91;89.75;97322.81;108158;1272;68481;-69
2021/12/13 01:39:07;;;;;;;29.60;16.60;;;;;;;3.94;89.59;97324.61;108141;1269;69619;-69
2021/12/13 01:41:42;;;;;;;34.60;17.10;;;;;;;3.95;89.43;97324.52;108086;1272;60105;-69
2021/12/13 01:44:21;;;;;;;23.20;11.60;;;;;;;3.98;89.25;97322.86;108183;1272;59719;-70
2021/12/13 01:46:56;;;;;;;21.70;12.60;;;;;;;4.00;88.93;97319.11;108155;1272;71653;-69
2021/12/13 01:49:32;;;;;;;25.00;12.50;;;;;;;4.02;88.90;97324.21;108120;1271;68620;-69
2021/12/13 01:52:13;;;;;;;28.00;13.10;;;;;;;4.03;88.92;97324.17;108336;1269;69382;-70
2021/12/13 01:54:44;;;;;;;120.30;23.70;;;;;;;4.05;88.90;97325.96;108076;1272;59866;-69
2021/12/13 02:00:09;;;;;;;18.60;11.30;;;;;;;4.03;88.85;97331.08;108244;1269;69745;-69
2021/12/13 02:02:45;;;;;;;21.20;13.30;;;;;;;4.03;88.27;97328.47;108058;1268;67844;-69
2021/12/13 02:05:17;;;;;;;47.80;21.10;;;;;;;4.03;88.09;97327.44;108028;1272;67607;-70
2021/12/13 02:07:55;;;;;;;23.60;12.00;;;;;;;4.03;88.25;97330.90;108202;1272;59851;-69
2021/12/13 02:10:30;;;;;;;34.10;19.80;;;;;;;4.02;88.53;97329.72;108039;1272;59732;-69
2021/12/13 02:13:20;;;;;;;68.50;24.80;;;;;;;4.00;89.49;97329.79;108100;1269;71181;-70
2021/12/13 02:18:49;;;;;;;20.90;12.70;;;;;;;3.98;90.18;97331.15;108188;1272;69317;-69
2021/12/13 02:21:32;;;;;;;32.30;16.00;;;;;;;4.00;89.65;97337.40;108146;1272;59763;-69
2021/12/13 02:24:08;;;;;;;32.80;17.10;;;;;;;4.02;89.19;97344.39;108143;1274;59697;-69
2021/12/13 02:26:42;;;;;;;32.40;19.00;;;;;;;4.02;89.44;97349.02;108153;1272;70732;-69
2021/12/13 02:29:23;;;;;;;18.60;11.60;;;;;;;4.04;89.27;97346.33;108169;1272;67807;-69
2021/12/13 02:31:53;;;;;;;16.90;10.30;;;;;;;4.06;89.09;97349.33;108144;1271;68591;-69
2021/12/13 02:34:29;;;;;;;18.50;10.60;;;;;;;4.07;89.12;97351.71;108061;1272;60233;-69
2021/12/13 02:37:01;;;;;;;21.90;13.00;;;;;;;4.09;89.59;97354.38;108108;1271;59729;-70
2021/12/13 02:39:35;;;;;;;22.20;13.10;;;;;;;4.10;89.80;97357.27;108158;1270;69765;-69
2021/12/13 02:42:08;;;;;;;14.50;9.10;;;;;;;4.13;89.56;97356.14;108127;1272;67670;-70
2021/12/13 02:44:46;;;;;;;12.90;8.40;;;;;;;4.15;89.09;97357.24;108056;1272;68622;-69
2021/12/13 02:47:32;;;;;;;15.70;10.10;;;;;;;4.16;88.79;97354.58;108122;1272;59706;-69
2021/12/13 02:50:10;;;;;;;22.20;12.20;;;;;;;4.17;88.97;97358.52;107981;1272;59729;-69
2021/12/13 02:52:41;;;;;;;25.70;14.40;;;;;;;4.16;88.96;97359.23;108054;1275;71502;-69
2021/12/13 02:55:22;;;;;;;17.00;10.10;;;;;;;4.15;89.00;97360.30;108054;1272;67861;-69
2021/12/13 02:57:54;;;;;;;14.60;9.90;;;;;;;4.16;88.87;97363.39;108027;1275;68554;-69
2021/12/13 03:00:38;;;;;;;16.10;9.60;;;;;;;4.16;88.95;97361.48;108203;1269;59726;-69
2021/12/13 03:03:15;;;;;;;12.60;8.50;;;;;;;4.16;88.62;97360.80;108059;1274;59742;-70
2021/12/13 03:05:49;;;;;;;20.80;12.90;;;;;;;4.18;88.36;97363.28;108111;1271;71635;-69
2021/12/13 03:08:26;;;;;;;14.00;8.60;;;;;;;4.18;88.50;97365.54;108036;1268;67845;-69
2021/12/13 03:11:00;;;;;;;15.00;10.70;;;;;;;4.20;88.39;97365.94;108009;1272;69256;-69
2021/12/13 03:13:32;;;;;;;14.00;9.00;;;;;;;4.20;88.20;97366.80;108054;1270;59758;-69
2021/12/13 03:16:09;;;;;;;16.90;10.70;;;;;;;4.19;87.98;97363.55;107980;1274;59800;-69
2021/12/13 03:18:48;;;;;;;17.10;11.40;;;;;;;4.20;87.75;97364.91;108152;1272;70715;-69
2021/12/13 03:21:45;;;;;;;15.40;10.60;;;;;;;4.20;87.74;97363.91;108125;1272;68158;-70
2021/12/13 03:24:18;;;;;;;14.30;9.20;;;;;;;4.19;87.65;97363.75;108098;1271;69560;-70
2021/12/13 03:27:13;;;;;;;12.00;8.00;;;;;;;4.17;87.60;97367.86;108037;1272;60186;-70
2021/12/13 03:29:59;;;;;;;11.90;8.00;;;;;;;4.13;87.52;97370.77;108096;1272;59715;-69
2021/12/13 03:32:43;;;;;;;18.40;11.70;;;;;;;4.11;87.33;97367.27;107969;1272;71654;-70
2021/12/13 03:35:21;;;;;;;13.10;8.20;;;;;;;4.07;87.22;97370.52;108110;1272;68676;-70
2021/12/13 03:38:00;;;;;;;17.80;11.00;;;;;;;4.05;87.17;97369.60;108125;1270;69330;-69
2021/12/13 03:40:32;;;;;;;14.90;10.80;;;;;;;4.03;87.29;97374.52;108134;1271;59720;-69
2021/12/13 03:43:10;;;;;;;12.40;8.00;;;;;;;4.01;87.43;97375.96;108177;1272;59722;-69
2021/12/13 03:45:51;;;;;;;12.70;8.30;;;;;;;4.02;87.17;97374.73;108108;1269;71785;-70
2021/12/13 03:48:23;;;;;;;15.00;8.40;;;;;;;4.00;87.20;97376.20;108205;1269;68755;-69
2021/12/13 03:50:59;;;;;;;14.30;9.10;;;;;;;3.99;87.10;97381.09;108104;1272;69490;-69
2021/12/13 03:53:31;;;;;;;10.00;7.80;;;;;;;3.99;87.05;97383.34;108129;1272;59728;-69
2021/12/13 03:56:15;;;;;;;15.20;11.20;;;;;;;4.00;86.98;97388.25;108118;1272;59750;-69
2021/12/13 03:58:52;;;;;;;14.00;9.60;;;;;;;4.00;86.98;97388.30;108149;1269;71605;-69
2021/12/13 04:01:36;;;;;;;11.50;7.60;;;;;;;3.98;86.95;97393.55;108071;1272;67663;-69
2021/12/13 04:04:11;;;;;;;15.80;11.30;;;;;;;3.98;86.88;97398.20;108094;1272;68586;-70
2021/12/13 04:06:49;;;;;;;14.90;9.90;;;;;;;3.96;86.87;97399.51;108139;1272;59821;-69
2021/12/13 04:09:21;;;;;;;14.90;10.00;;;;;;;3.94;87.31;97404.23;108147;1270;59791;-69
2021/12/13 04:11:54;;;;;;;13.40;8.70;;;;;;;3.93;87.55;97408.61;108098;1272;69916;-69
2021/12/13 04:14:31;;;;;;;12.50;8.00;;;;;;;3.93;87.23;97405.66;108156;1272;67188;-69
2021/12/13 04:17:21;;;;;;;12.70;8.80;;;;;;;3.95;87.04;97409.55;108115;1270;68737;-69
2021/12/13 04:19:58;;;;;;;14.00;9.10;;;;;;;3.98;87.09;97406.34;108127;1271;59718;-69
2021/12/13 04:22:34;;;;;;;13.00;8.30;;;;;;;3.98;87.02;97407.69;108137;1269;59773;-70
2021/12/13 04:25:15;;;;;;;13.60;8.90;;;;;;;4.00;86.94;97409.48;108103;1272;71774;-70
2021/12/13 04:27:56;;;;;;;13.90;8.60;;;;;;;4.00;86.96;97407.23;108115;1270;67906;-69
2021/12/13 04:30:41;;;;;;;15.30;9.90;;;;;;;4.00;86.97;97408.80;108093;1270;68673;-69
2021/12/13 04:33:33;;;;;;;15.20;10.40;;;;;;;4.01;86.91;97412.70;108032;1272;60090;-69
2021/12/13 04:36:11;;;;;;;12.30;8.60;;;;;;;4.01;86.94;97413.42;108066;1272;59732;-70
2021/12/13 04:38:52;;;;;;;11.20;7.80;;;;;;;4.00;87.12;97420.36;107954;1272;70648;-69
2021/12/13 04:41:27;;;;;;;15.40;9.70;;;;;;;3.95;87.39;97421.59;108093;1273;68615;-70
2021/12/13 04:44:37;;;;;;;13.10;8.40;;;;;;;3.95;87.23;97425.41;108106;1272;68748;-69
2021/12/13 04:47:17;;;;;;;13.30;8.10;;;;;;;3.97;87.13;97426.85;107646;1278;59787;-69
2021/12/13 04:49:56;;;;;;;11.50;8.20;;;;;;;3.99;87.03;97428.50;107541;1277;59794;-68
2021/12/13 04:52:26;;;;;;;14.20;8.90;;;;;;;4.02;86.88;97429.41;107558;1278;71711;-68
2021/12/13 04:54:56;;;;;;;14.50;9.70;;;;;;;4.02;86.88;97430.42;107601;1278;68429;-68
2021/12/13 04:57:27;;;;;;;11.10;6.90;;;;;;;4.02;86.92;97428.19;107554;1280;69272;-68
2021/12/13 05:00:02;;;;;;;14.30;9.60;;;;;;;4.02;86.85;97426.63;107417;1277;59746;-68
2021/12/13 05:02:32;;;;;;;18.90;11.30;;;;;;;4.00;86.87;97427.21;107602;1278;59734;-68
2021/12/13 05:05:05;;;;;;;13.60;8.40;;;;;;;3.99;86.99;97431.13;107473;1278;70996;-68
2021/12/13 05:07:35;;;;;;;18.80;12.50;;;;;;;3.98;86.99;97435.95;107633;1277;68786;-68
2021/12/13 05:10:05;;;;;;;20.10;12.90;;;;;;;3.97;87.18;97442.55;107491;1278;68468;-68
2021/12/13 05:12:34;;;;;;;18.20;11.90;;;;;;;3.96;87.35;97441.60;107637;1278;59839;-68
2021/12/13 05:15:13;;;;;;;19.20;11.60;;;;;;;3.95;87.32;97447.98;107535;1278;59805;-68
2021/12/13 05:17:45;;;;;;;10.00;6.60;;;;;;;3.96;86.95;97449.18;107546;1279;71677;-69
2021/12/13 05:20:22;;;;;;;14.30;9.80;;;;;;;3.98;86.83;97454.92;107522;1275;67975;-69
2021/12/13 05:23:10;;;;;;;12.90;8.90;;;;;;;3.98;86.75;97454.39;108219;1269;69473;-69
2021/12/13 05:25:43;;;;;;;19.80;12.10;;;;;;;4.02;86.68;97461.15;108157;1269;59699;-69
2021/12/13 05:28:19;;;;;;;17.00;10.80;;;;;;;4.01;86.41;97463.08;108101;1272;59764;-69
2021/12/13 05:30:58;;;;;;;13.70;7.70;;;;;;;4.00;86.59;97465.85;108115;1272;70765;-69
2021/12/13 05:33:32;;;;;;;13.00;9.30;;;;;;;4.01;86.69;97469.96;108146;1269;68612;-70
2021/12/13 05:36:09;;;;;;;12.90;8.00;;;;;;;4.00;86.48;97473.11;108036;1271;68618;-69
2021/12/13 05:38:45;;;;;;;11.20;7.70;;;;;;;4.00;86.23;97474.50;108068;1271;59745;-69
2021/12/13 05:41:24;;;;;;;12.60;9.30;;;;;;;3.98;86.20;97479.42;108145;1272;59735;-69
2021/12/13 05:43:57;;;;;;;14.20;9.10;;;;;;;3.97;86.13;97485.35;108106;1272;70796;-69
2021/12/13 05:46:43;;;;;;;14.90;9.40;;;;;;;3.95;86.09;97480.44;108050;1272;67893;-69
2021/12/13 05:49:44;;;;;;;15.00;8.80;;;;;;;3.94;86.06;97481.34;108221;1269;69509;-69
2021/12/13 05:52:21;;;;;;;12.10;7.90;;;;;;;3.92;86.07;97485.92;108084;1272;59784;-69
2021/12/13 05:54:53;;;;;;;11.60;7.80;;;;;;;3.91;86.16;97486.48;108254;1269;59675;-70
2021/12/13 05:57:27;;;;;;;14.20;9.20;;;;;;;3.90;86.04;97488.42;108202;1269;70412;-69
2021/12/13 06:00:03;;;;;;;13.30;8.40;;;;;;;3.90;86.01;97492.05;108163;1269;68696;-69
2021/12/13 06:03:00;;;;;;;15.30;9.30;;;;;;;3.91;86.08;97494.91;108161;1272;69461;-69
2021/12/13 06:05:36;;;;;;;11.50;7.60;;;;;;;3.89;85.91;97496.55;108171;1272;59716;-69
2021/12/13 06:08:17;;;;;;;14.30;8.90;;;;;;;3.88;85.87;97495.05;108332;1269;59664;-69
2021/12/13 06:10:47;;;;;;;14.60;10.50;;;;;;;3.85;85.81;97496.55;108128;1272;71528;-69
2021/12/13 06:13:44;;;;;;;14.40;9.60;;;;;;;3.82;85.96;97498.90;108091;1272;68430;-69
2021/12/13 06:16:23;;;;;;;14.60;9.70;;;;;;;3.81;85.84;97502.58;108085;1272;69446;-69
2021/12/13 06:18:58;;;;;;;15.60;9.50;;;;;;;3.80;85.68;97503.32;108090;1271;59773;-69
2021/12/13 06:21:38;;;;;;;12.60;8.50;;;;;;;3.77;85.70;97503.45;108107;1269;59837;-69
2021/12/13 06:24:09;;;;;;;9.70;7.30;;;;;;;3.76;85.87;97505.07;108172;1271;71600;-69
2021/12/13 06:26:39;;;;;;;24.40;13.50;;;;;;;3.76;85.83;97504.91;108130;1270;66871;-70
2021/12/13 06:29:09;;;;;;;34.00;16.80;;;;;;;3.77;85.77;97509.34;108127;1271;68466;-70
2021/12/13 06:31:41;;;;;;;18.80;11.80;;;;;;;3.76;85.69;97516.96;108189;1269;59731;-70
2021/12/13 06:34:15;;;;;;;17.70;11.20;;;;;;;3.77;85.72;97520.18;108214;1272;59853;-69
2021/12/13 06:36:48;;;;;;;25.80;15.20;;;;;;;3.79;85.64;97525.45;108179;1272;71789;-69
2021/12/13 06:39:19;;;;;;;29.70;18.90;;;;;;;3.80;85.60;97526.95;108123;1272;68501;-69
2021/12/13 06:42:07;;;;;;;39.20;22.70;;;;;;;3.82;85.55;97523.22;108283;1269;69118;-69
2021/12/13 06:44:42;;;;;;;39.00;24.80;;;;;;;3.83;85.53;97525.08;108253;1270;59720;-69
2021/12/13 06:47:16;;;;;;;40.30;28.90;;;;;;;3.85;85.36;97525.35;108292;1269;59720;-68
2021/12/13 06:49:57;;;;;;;28.30;20.40;;;;;;;3.86;85.35;97526.69;108148;1269;71702;-68
2021/12/13 06:52:37;;;;;;;18.50;14.60;;;;;;;3.87;85.32;97531.45;107954;1274;68873;-68
2021/12/13 06:55:16;;;;;;;12.20;9.80;;;;;;;3.91;85.25;97529.58;108110;1272;69448;-70
2021/12/13 06:57:56;;;;;;;13.40;9.60;;;;;;;3.92;85.02;97531.44;108083;1272;59700;-69
2021/12/13 07:00:32;;;;;;;13.40;9.40;;;;;;;3.90;84.95;97533.39;108160;1269;59685;-68
2021/12/13 07:03:07;;;;;;;10.90;7.90;;;;;;;3.92;85.14;97534.86;108162;1272;71605;-68
2021/12/13 07:05:46;;;;;;;10.40;7.30;;;;;;;3.95;84.91;97538.52;108225;1272;67934;-68
2021/12/13 07:08:23;;;;;;;11.70;8.00;;;;;;;3.99;85.07;97542.50;108100;1272;68683;-69
2021/12/13 07:10:52;;;;;;;13.70;8.90;;;;;;;4.02;84.94;97540.45;108058;1272;59814;-69
2021/12/13 07:13:32;;;;;;;11.80;8.10;;;;;;;4.05;85.03;97543.05;108291;1269;59761;-69
2021/12/13 07:16:29;;;;;;;8.90;6.90;;;;;;;4.12;85.06;97546.59;108112;1272;71437;-69
2021/12/13 07:19:08;;;;;;;15.30;10.10;;;;;;;4.20;85.09;97547.95;108197;1269;68701;-69
2021/12/13 07:22:07;;;;;;;13.00;9.50;;;;;;;4.25;85.13;97550.64;108120;1271;68649;-69
2021/12/13 07:24:42;;;;;;;11.00;8.40;;;;;;;4.32;85.09;97556.19;107727;1275;59791;-69
2021/12/13 07:27:36;;;;;;;10.40;7.20;;;;;;;4.38;84.80;97554.57;107695;1275;59720;-68
2021/12/13 07:30:05;;;;;;;12.90;8.30;;;;;;;4.42;84.44;97560.75;107681;1279;70628;-69
2021/12/13 07:32:41;;;;;;;12.10;8.80;;;;;;;4.46;84.18;97562.11;107669;1276;67908;-69
2021/12/13 07:35:24;;;;;;;11.70;8.00;;;;;;;4.49;84.37;97562.84;107586;1278;68288;-69
2021/12/13 07:37:58;;;;;;;19.00;14.30;;;;;;;4.53;84.28;97568.36;107662;1275;59838;-68
2021/12/13 07:40:30;;;;;;;16.70;11.00;;;;;;;4.45;84.25;97570.59;107521;1278;59899;-68
2021/12/13 07:43:07;;;;;;;20.30;12.90;;;;;;;4.47;84.43;97570.55;107757;1276;71749;-68
2021/12/13 07:45:45;;;;;;;19.40;14.30;;;;;;;4.45;84.19;97573.89;107662;1278;67995;-68
2021/12/13 07:48:19;;;;;;;17.40;12.30;;;;;;;4.46;84.74;97574.00;107472;1280;70028;-68
2021/12/13 07:51:15;;;;;;;14.50;9.50;;;;;;;4.50;84.68;97580.90;107627;1277;59790;-68
2021/12/13 07:53:58;;;;;;;15.30;10.10;;;;;;;4.61;84.57;97576.80;107613;1277;59781;-68
2021/12/13 07:56:39;;;;;;;13.60;9.60;;;;;;;4.68;83.78;97579.22;107553;1278;71444;-68
2021/12/13 07:59:30;;;;;;;12.90;9.90;;;;;;;4.72;83.65;97581.48;107633;1278;67813;-68
2021/12/13 08:02:08;;;;;;;13.50;9.60;;;;;;;4.80;83.87;97583.14;107963;1272;68516;-68
2021/12/13 08:04:46;;;;;;;13.00;8.90;;;;;;;4.88;83.31;97584.15;107990;1272;59744;-68
2021/12/13 08:07:19;;;;;;;12.30;8.90;;;;;;;4.94;82.77;97583.21;108142;1272;59694;-69
2021/12/13 08:10:03;;;;;;;14.20;9.60;;;;;;;4.99;82.76;97592.95;108078;1272;71733;-69
2021/12/13 08:12:45;;;;;;;12.80;9.10;;;;;;;5.07;82.26;97595.34;108039;1273;67739;-68
2021/12/13 08:15:19;;;;;;;15.70;10.20;;;;;;;5.09;82.40;97599.73;108290;1269;68696;-68
2021/12/13 08:17:51;;;;;;;14.60;10.50;;;;;;;5.09;81.84;97606.98;108038;1271;59770;-68
2021/12/13 08:20:29;;;;;;;15.60;11.40;;;;;;;5.02;81.54;97610.45;108106;1271;59731;-69
2021/12/13 08:23:00;;;;;;;14.60;10.50;;;;;;;4.98;82.19;97607.84;108089;1271;71582;-67
2021/12/13 08:25:39;;;;;;;15.20;10.60;;;;;;;4.95;81.88;97613.53;108111;1272;68624;-70
2021/12/13 08:28:13;;;;;;;17.30;12.00;;;;;;;4.87;81.74;97614.96;108093;1272;68652;-68
2021/12/13 08:30:52;;;;;;;15.00;10.00;;;;;;;4.79;82.05;97617.92;108064;1272;59750;-68
2021/12/13 08:33:30;;;;;;;15.20;10.70;;;;;;;4.71;81.87;97617.40;108084;1270;59845;-69
2021/12/13 08:36:28;;;;;;;14.80;10.30;;;;;;;4.65;81.79;97622.70;108035;1272;71611;-68
2021/12/13 08:39:20;;;;;;;13.70;10.30;;;;;;;4.60;82.17;97626.55;108233;1272;67072;-68
2021/12/13 08:42:09;;;;;;;15.10;10.10;;;;;;;4.58;82.31;97628.86;107652;1269;518285;-69
2021/12/13 08:44:43;;;;;;;15.80;10.80;;;;;;;4.59;82.20;97628.29;108107;1272;59783;-69
2021/12/13 08:47:24;;;;;;;13.80;9.90;;;;;;;4.58;82.08;97629.23;108162;1272;59652;-69
2021/12/13 08:49:59;;;;;;;11.70;8.40;;;;;;;4.59;82.13;97630.56;108059;1272;70884;-70
2021/12/13 08:52:40;;;;;;;18.60;14.50;;;;;;;4.61;82.04;97633.73;108194;1271;68530;-69
2021/12/13 08:55:13;;;;;;;18.30;15.90;;;;;;;4.60;81.61;97633.44;108146;1272;70142;-70
2021/12/13 08:58:00;;;;;;;13.30;9.30;;;;;;;4.56;81.30;97632.77;108166;1271;59767;-71
2021/12/13 09:00:42;;;;;;;15.60;11.60;;;;;;;4.52;81.68;97632.76;108127;1271;59750;-69
2021/12/13 09:03:25;;;;;;;12.30;9.40;;;;;;;4.51;81.76;97636.98;108096;1272;70788;-69
2021/12/13 09:06:06;;;;;;;23.30;16.90;;;;;;;4.50;81.81;97629.77;108149;1272;68582;-68
2021/12/13 09:09:00;;;;;;;24.40;18.00;;;;;;;4.51;81.98;97629.00;108126;1271;68793;-67
2021/12/13 09:11:32;;;;;;;24.10;19.30;;;;;;;4.57;81.81;97622.19;108040;1272;59706;-68
2021/12/13 09:14:15;;;;;;;16.20;11.20;;;;;;;4.61;81.81;97623.41;108122;1272;59742;-68
2021/12/13 09:17:09;;;;;;;14.90;11.00;;;;;;;4.67;81.73;97619.33;108140;1272;70772;-68
2021/12/13 09:19:47;;;;;;;11.30;9.60;;;;;;;4.70;81.69;97615.20;108154;1272;67891;-69
2021/12/13 09:22:41;;;;;;;12.50;9.80;;;;;;;4.74;81.61;97610.88;108017;1271;68777;-69
2021/12/13 09:25:30;;;;;;;17.50;14.30;;;;;;;4.80;81.63;97606.80;108131;1269;59757;-68
2021/12/13 09:28:14;;;;;;;22.80;20.30;;;;;;;4.86;81.55;97606.19;108167;1269;59745;-68
2021/12/13 09:31:04;;;;;;;12.30;9.80;;;;;;;4.94;81.60;97605.46;108024;1274;70819;-68
2021/12/13 09:33:39;;;;;;;13.20;9.70;;;;;;;4.99;81.07;97604.02;108151;1272;68837;-67
2021/12/13 09:36:14;;;;;;;9.90;7.90;;;;;;;5.01;81.05;97602.90;108231;1269;69746;-69
2021/12/13 09:39:11;;;;;;;11.00;8.10;;;;;;;5.02;80.76;97599.56;108080;1272;59712;-68
2021/12/13 09:41:58;;;;;;;12.50;8.30;;;;;;;5.02;80.51;97594.89;108139;1270;59665;-70
2021/12/13 09:44:49;;;;;;;14.60;8.90;;;;;;;5.03;80.10;97593.44;108200;1272;70781;-68
2021/12/13 09:47:23;;;;;;;10.80;7.50;;;;;;;5.04;80.15;97592.72;108271;1269;68549;-69
2021/12/13 09:49:57;;;;;;;14.70;9.70;;;;;;;5.05;80.29;97595.77;108223;1272;69593;-69
2021/12/13 09:52:32;;;;;;;9.20;7.30;;;;;;;5.02;79.83;97596.79;108087;1272;59703;-69
2021/12/13 09:55:09;;;;;;;14.20;9.50;;;;;;;4.93;79.64;97594.65;108146;1272;59697;-70
2021/12/13 09:58:15;;;;;;;11.30;7.80;;;;;;;4.84;79.70;97599.17;108125;1272;71290;-70
2021/12/13 10:01:20;;;;;;;13.10;9.10;;;;;;;4.80;80.18;97598.69;108138;1272;67873;-69
2021/12/13 10:04:30;;;;;;;12.80;8.90;;;;;;;4.73;80.02;97595.39;107662;1277;69517;-69
2021/12/13 10:07:21;;;;;;;11.30;7.80;;;;;;;4.65;80.32;97600.25;107470;1281;59883;-69
2021/12/13 10:10:10;;;;;;;;;;;;;;;4.64;80.51;97602.91;107491;1281;59714;-67
2021/12/13 10:13:04;;;;;;;12.10;8.40;;;;;;;4.56;80.11;97601.69;107478;1281;70606;-68
2021/12/13 10:15:50;;;;;;;13.80;11.00;;;;;;;4.51;80.35;97600.02;107386;1282;68515;-68
2021/12/13 10:18:23;;;;;;;17.10;11.70;;;;;;;4.46;80.62;97603.52;107384;1281;69394;-69
2021/12/13 10:21:04;;;;;;;14.20;9.80;;;;;;;4.46;80.79;97603.21;107435;1280;59838;-70
2021/12/13 10:23:55;;;;;;;15.00;8.30;;;;;;;4.46;80.66;97602.34;107476;1281;59885;-68
2021/12/13 10:26:33;;;;;;;14.10;9.60;;;;;;;4.44;80.55;97603.28;107397;1281;69821;-69
2021/12/13 10:29:06;;;;;;;12.90;8.30;;;;;;;4.43;80.39;97601.59;107533;1280;68160;-68
2021/12/13 10:31:47;;;;;;;13.00;9.00;;;;;;;4.44;80.65;97602.58;107468;1280;69638;-69
2021/12/13 10:34:28;;;;;;;13.10;9.00;;;;;;;4.45;80.56;97605.46;107571;1281;59729;-69
2021/12/13 10:37:24;;;;;;;10.40;7.30;;;;;;;4.48;80.65;97603.98;107507;1281;59758;-68
2021/12/13 10:40:04;;;;;;;12.00;8.60;;;;;;;4.52;80.67;97606.72;107901;1272;71638;-69
2021/12/13 10:42:40;;;;;;;11.50;8.80;;;;;;;4.53;80.50;97607.52;108094;1272;67972;-69
2021/12/13 10:45:15;;;;;;;10.60;7.30;;;;;;;4.54;80.54;97608.71;107955;1272;69468;-70
2021/12/13 10:47:50;;;;;;;14.80;11.50;;;;;;;4.52;80.43;97605.65;107980;1272;59826;-69
2021/12/13 10:50:31;;;;;;;17.00;10.00;;;;;;;4.49;80.41;97608.42;108035;1274;59710;-69
2021/12/13 10:53:00;;;;;;;;;;;;;;;4.46;80.37;97608.52;108087;1272;71608;-68
2021/12/13 10:55:35;;;;;;;15.20;9.60;;;;;;;4.39;80.15;97610.56;108115;1271;68637;-69
2021/12/13 10:58:05;;;;;;;17.30;11.80;;;;;;;4.34;80.37;97608.22;108038;1272;69488;-68
2021/12/13 11:00:38;;;;;;;17.00;10.20;;;;;;;4.27;80.17;97607.98;108102;1272;59781;-68
2021/12/13 11:03:12;;;;;;;15.00;9.70;;;;;;;4.20;80.37;97607.65;108142;1271;59660;-68
2021/12/13 11:05:43;;;;;;;14.70;9.60;;;;;;;4.16;80.42;97607.66;108125;1272;71537;-68
2021/12/13 11:08:15;;;;;;;16.60;11.20;;;;;;;4.11;80.51;97614.56;108121;1271;68459;-69
2021/12/13 11:10:52;;;;;;;14.00;9.30;;;;;;;4.06;80.17;97616.70;108003;1272;68579;-69
2021/12/13 11:13:28;;;;;;;16.70;11.10;;;;;;;4.01;80.54;97616.71;108112;1272;59685;-69
2021/12/13 11:16:03;;;;;;;18.70;13.00;;;;;;;3.96;80.24;97615.40;108123;1272;59746;-70
2021/12/13 11:18:33;;;;;;;17.00;12.40;;;;;;;3.85;80.15;97620.17;108113;1271;71720;-69
2021/12/13 11:21:10;;;;;;;15.00;10.40;;;;;;;3.82;80.56;97616.70;108096;1272;67820;-69
2021/12/13 11:23:40;;;;;;;18.40;12.00;;;;;;;3.78;80.51;97616.48;108008;1272;69891;-69
2021/12/13 11:26:18;;;;;;;13.60;10.20;;;;;;;3.71;80.26;97616.80;108078;1272;59751;-70
2021/12/13 11:28:47;;;;;;;14.90;11.40;;;;;;;3.67;80.69;97618.35;107958;1274;59730;-69
2021/12/13 11:31:29;;;;;;;;;;;;;;;3.66;80.74;97617.90;108144;1272;71643;-69
2021/12/13 11:33:59;;;;;;;19.50;11.80;;;;;;;3.62;80.80;97611.67;108040;1272;67636;-70
2021/12/13 11:36:58;;;;;;;16.60;12.00;;;;;;;3.56;80.90;97613.30;108108;1271;69433;-70
2021/12/13 11:39:50;;;;;;;17.20;12.00;;;;;;;3.52;81.13;97619.13;108085;1272;59796;-66
2021/12/13 11:42:49;;;;;;;20.40;13.10;;;;;;;3.51;81.23;97616.43;108032;1270;59725;-69
2021/12/13 11:46:06;;;;;;;18.30;11.70;;;;;;;3.47;81.21;97615.55;108088;1271;71569;-68
2021/12/13 11:48:59;;;;;;;18.90;11.20;;;;;;;3.37;81.46;97625.77;108071;1272;68764;-68
2021/12/13 11:52:06;;;;;;;18.60;11.40;;;;;;;3.34;81.56;97624.71;108113;1271;69451;-69
2021/12/13 11:54:59;;;;;;;14.60;9.40;;;;;;;3.33;81.67;97625.60;108092;1272;60175;-69
2021/12/13 11:57:46;;;;;;;13.90;8.50;;;;;;;3.36;81.63;97625.49;108096;1271;59645;-69
2021/12/13 12:00:36;;;;;;;14.10;9.20;;;;;;;3.40;81.61;97628.26;108080;1271;70869;-69
2021/12/13 12:03:43;;;;;;;18.70;11.90;;;;;;;3.44;81.58;97627.59;108075;1272;67890;-69
2021/12/13 12:06:49;;;;;;;16.10;10.30;;;;;;;3.45;81.38;97630.98;108161;1271;68664;-69
2021/12/13 12:09:51;;;;;;;16.40;10.60;;;;;;;3.47;81.46;97630.73;108083;1271;59780;-69
2021/12/13 12:12:44;;;;;;;19.50;11.50;;;;;;;3.47;81.40;97624.34;108108;1272;59669;-69
2021/12/13 12:15:14;;;;;;;15.10;10.20;;;;;;;3.50;81.31;97625.27;107962;1273;71596;-69
2021/12/13 12:17:44;;;;;;;19.90;12.00;;;;;;;3.49;81.09;97624.09;108039;1271;68162;-69
2021/12/13 12:20:20;;;;;;;14.20;9.10;;;;;;;3.48;81.00;97617.25;107972;1272;69505;-70
2021/12/13 16:18:10;;;;;;;17.00;11.90;;;;;;;2.45;85.34;97816.17;104507;1311;609925;-76
2021/12/13 16:20:44;;;;;;;19.60;13.60;;;;;;;2.63;85.40;97815.93;106759;1287;735533;-76
2021/12/13 16:23:26;;;;;;;19.50;13.20;;;;;;;2.65;84.76;97823.06;107424;1281;57655;-71
2021/12/13 16:26:00;;;;;;;20.30;12.80;;;;;;;2.67;85.02;97820.95;107334;1286;69197;-74